Time;durP1;ratioP1;P1;durP2;ratioP2;P2;SDS_P1;SDS_P2;PMS_P1;PMS_P2;Temp;Humidity;BMP_temperature;BMP_pressure;BME280_temperature;BME280_humidity;BME280_pressure;Samples;Min_cycle;Max_cycle;Signal;HPM_P1;HPM_P2
2022/11/17 06:00:14;;;;;;;;;;;;;;;13.76;69.97;95256.78;4257594;27;10315;-64
2022/11/17 06:02:24;;;;;;;;;;;;;;;14.07;69.24;95262.38;4249183;27;5658;-64
2022/11/17 06:04:27;;;;;;;;;;;;;;;14.28;68.91;95262.31;4246926;27;6355;-65
2022/11/17 06:06:30;;;;;;;;;;;;;;;14.47;68.50;95278.69;4248364;27;5749;-65
2022/11/17 06:08:33;;;;;;;;;;;;;;;14.62;68.04;95290.53;4246871;27;5625;-65
2022/11/17 06:10:36;;;;;;;;;;;;;;;14.74;67.87;95278.66;4261570;27;5711;-65
2022/11/17 06:12:38;;;;;;;;;;;;;;;14.85;67.67;95280.31;4256285;27;5092;-65
2022/11/17 06:14:41;;;;;;;;;;;;;;;14.97;67.52;95274.00;4260725;27;5625;-65
2022/11/17 06:16:48;;;;;;;;;;;;;;;15.05;67.19;95279.63;4257367;27;5712;-65
2022/11/17 06:18:56;;;;;;;;;;;;;;;15.12;67.30;95274.88;4259327;27;5613;-66
2022/11/17 06:20:59;;;;;;;;;;;;;;;15.18;67.03;95266.94;4255110;27;5655;-66
2022/11/17 06:23:05;;;;;;;;;;;;;;;15.23;66.99;95294.38;4257223;27;5720;-65
2022/11/17 06:25:09;;;;;;;;;;;;;;;15.28;66.82;95296.25;4261835;27;5696;-65
2022/11/17 06:27:15;;;;;;;;;;;;;;;15.33;66.63;95297.09;4260023;27;5633;-65
2022/11/17 06:29:19;;;;;;;;;;;;;;;15.36;66.84;95298.41;4255011;27;5674;-65
2022/11/17 06:31:23;;;;;;;;;;;;;;;15.39;66.60;95303.22;4254200;27;5810;-65
2022/11/17 06:33:30;;;;;;;;;;;;;;;15.43;66.55;95317.63;4254511;27;5630;-65
2022/11/17 06:35:34;;;;;;;;;;;;;;;15.46;66.57;95324.28;4256787;27;5650;-65
2022/11/17 06:37:37;;;;;;;;;;;;;;;15.46;66.42;95332.28;4256366;27;5653;-66
2022/11/17 06:39:40;;;;;;;;;;;;;;;15.44;66.12;95329.88;4251830;27;5715;-65
2022/11/17 06:41:43;;;;;;;;;;;;;;;15.46;66.30;95338.41;4264164;27;5613;-65
2022/11/17 06:43:45;;;;;;;;;;;;;;;15.49;66.21;95345.88;4265406;27;5638;-65
2022/11/17 06:45:48;;;;;;;;;;;;;;;15.53;66.05;95354.16;4246650;27;5613;-65
2022/11/17 06:47:53;;;;;;;;;;;;;;;15.54;65.91;95345.91;4258246;27;5852;-65
2022/11/17 06:49:57;;;;;;;;;;;;;;;15.54;65.81;95351.25;4255804;27;5629;-65
2022/11/17 06:52:00;;;;;;;;;;;;;;;15.56;66.03;95354.44;4248278;27;5634;-65
2022/11/17 06:54:04;;;;;;;;;;;;;;;15.57;65.68;95361.38;4265103;27;5728;-65
2022/11/17 06:56:08;;;;;;;;;;;;;;;15.60;65.84;95366.19;4264684;27;5692;-64
2022/11/17 06:58:12;;;;;;;;;;;;;;;15.61;65.62;95357.16;4256319;27;5090;-65
2022/11/17 07:00:16;;;;;;;;;;;;;;;15.60;65.60;95354.75;4251907;27;7668;-65
2022/11/17 07:02:19;;;;;;;;;;;;;;;15.63;65.60;95354.25;4245111;27;5651;-65
2022/11/17 07:04:22;;;;;;;;;;;;;;;15.62;65.46;95368.59;4250895;27;5877;-65
2022/11/17 07:06:26;;;;;;;;;;;;;;;15.62;65.46;95357.94;4237244;27;5622;-66
2022/11/17 07:08:30;;;;;;;;;;;;;;;15.61;65.46;95357.16;4235265;27;5642;-66
2022/11/17 07:10:34;;;;;;;;;;;;;;;15.63;65.38;95363.03;4236073;27;5634;-65
2022/11/17 07:12:37;;;;;;;;;;;;;;;15.66;65.31;95369.72;4226004;27;5688;-65
2022/11/17 07:14:39;;;;;;;;;;;;;;;15.67;65.43;95371.31;4241734;27;5637;-66
2022/11/17 07:16:43;;;;;;;;;;;;;;;15.71;65.05;95377.72;4247973;27;5679;-66
2022/11/17 07:18:46;;;;;;;;;;;;;;;15.69;65.12;95374.50;4244636;27;5635;-66
2022/11/17 07:20:49;;;;;;;;;;;;;;;15.68;65.23;95379.03;4236064;28;5761;-66
2022/11/17 07:22:58;;;;;;;;;;;;;;;15.70;65.11;95384.91;4251813;27;5712;-66
2022/11/17 07:25:01;;;;;;;;;;;;;;;15.74;65.06;95393.16;4234068;27;5805;-66
2022/11/17 07:27:05;;;;;;;;;;;;;;;15.75;64.90;95389.47;4219838;27;5668;-66
2022/11/17 07:29:08;;;;;;;;;;;;;;;15.76;65.02;95380.41;4252900;27;5790;-66
2022/11/17 07:31:11;;;;;;;;;;;;;;;15.78;64.85;95382.81;4244760;27;5621;-66
2022/11/17 07:33:14;;;;;;;;;;;;;;;15.78;64.74;95388.16;4236119;28;5679;-66
2022/11/17 07:35:18;;;;;;;;;;;;;;;15.78;64.81;95388.94;4246260;27;5625;-66
2022/11/17 07:37:21;;;;;;;;;;;;;;;15.78;64.73;95385.47;4241898;27;6333;-66
2022/11/17 07:39:27;;;;;;;;;;;;;;;15.76;64.81;95382.28;4231760;27;5655;-66
2022/11/17 07:41:30;;;;;;;;;;;;;;;15.77;64.78;95386.53;4239679;27;5731;-66
2022/11/17 07:43:34;;;;;;;;;;;;;;;15.77;64.72;95383.88;4253126;27;5630;-66
2022/11/17 07:45:37;;;;;;;;;;;;;;;15.78;64.59;95380.16;4246957;27;5639;-66
2022/11/17 07:47:40;;;;;;;;;;;;;;;15.78;64.50;95382.81;4242968;27;5658;-66
2022/11/17 07:49:43;;;;;;;;;;;;;;;15.77;64.57;95375.88;4242073;27;5656;-66
2022/11/17 07:51:46;;;;;;;;;;;;;;;15.76;64.62;95379.63;4244407;27;5092;-66
2022/11/17 07:53:49;;;;;;;;;;;;;;;15.78;64.56;95383.63;4230615;28;5650;-66
2022/11/17 07:55:53;;;;;;;;;;;;;;;15.79;64.79;95379.09;4233924;28;5724;-66
2022/11/17 07:57:57;;;;;;;;;;;;;;;15.82;64.65;95376.69;4234262;28;5747;-66
2022/11/17 08:00:00;;;;;;;;;;;;;;;15.84;64.31;95379.91;4231535;28;5907;-66
2022/11/17 08:02:03;;;;;;;;;;;;;;;15.82;64.56;95381.22;4231177;28;5860;-66
2022/11/17 08:04:06;;;;;;;;;;;;;;;15.81;64.53;95372.44;4233975;28;5846;-66
2022/11/17 08:06:09;;;;;;;;;;;;;;;15.85;64.48;95378.84;4241580;27;5736;-66
2022/11/17 08:08:13;;;;;;;;;;;;;;;15.87;64.36;95382.06;4243544;27;5831;-66
2022/11/17 08:10:16;;;;;;;;;;;;;;;15.90;64.55;95381.53;4250183;27;5637;-66
2022/11/17 08:12:20;;;;;;;;;;;;;;;15.92;64.34;95390.06;4236166;27;5723;-66
2022/11/17 08:14:23;;;;;;;;;;;;;;;15.95;64.31;95394.06;4227863;28;5773;-66
2022/11/17 08:16:29;;;;;;;;;;;;;;;15.96;64.40;95385.00;4236337;27;5745;-66
2022/11/17 08:18:32;;;;;;;;;;;;;;;15.95;64.23;95386.88;4235014;28;5667;-66
2022/11/17 08:20:36;;;;;;;;;;;;;;;15.96;64.21;95388.47;4234830;28;5647;-66
2022/11/17 08:22:39;;;;;;;;;;;;;;;15.99;64.24;95395.16;4234807;28;5677;-66
2022/11/17 08:24:42;;;;;;;;;;;;;;;16.00;64.23;95383.44;4239940;27;5728;-66
2022/11/17 08:26:45;;;;;;;;;;;;;;;16.00;64.17;95378.91;4241378;27;5779;-66
2022/11/17 08:28:49;;;;;;;;;;;;;;;16.00;64.21;95381.56;4249108;27;5752;-66
2022/11/17 08:31:00;;;;;;;;;;;;;;;16.01;63.97;95388.50;4246625;27;5610;-66
2022/11/17 08:33:03;;;;;;;;;;;;;;;16.01;64.21;95387.72;4226074;27;5654;-66
2022/11/17 08:35:07;;;;;;;;;;;;;;;16.02;64.08;95386.66;4239431;27;5845;-66
2022/11/17 08:37:10;;;;;;;;;;;;;;;16.02;64.04;95383.97;4250548;27;5633;-66
2022/11/17 08:39:14;;;;;;;;;;;;;;;16.02;64.05;95381.31;4235782;27;5647;-66
2022/11/17 08:41:17;;;;;;;;;;;;;;;16.02;64.01;95379.44;4250542;27;5680;-66
2022/11/17 08:43:20;;;;;;;;;;;;;;;16.03;63.79;95364.25;4236692;27;5844;-66
2022/11/17 08:45:24;;;;;;;;;;;;;;;16.04;64.02;95375.72;4244025;27;5805;-68
2022/11/17 08:47:27;;;;;;;;;;;;;;;16.02;63.84;95375.97;4249883;27;5701;-66
2022/11/17 08:49:30;;;;;;;;;;;;;;;16.04;63.70;95375.72;4238531;27;5742;-66
2022/11/17 08:51:32;;;;;;;;;;;;;;;16.06;63.58;95385.03;4228482;27;5733;-66
2022/11/17 08:53:36;;;;;;;;;;;;;;;16.08;63.71;95388.25;4235768;27;5679;-66
2022/11/17 08:55:39;;;;;;;;;;;;;;;16.09;63.79;95391.75;4248275;27;5688;-66
2022/11/17 08:57:43;;;;;;;;;;;;;;;16.11;63.63;95390.41;4231452;27;6361;-66
2022/11/17 08:59:46;;;;;;;;;;;;;;;16.12;63.49;95389.34;4220859;28;6476;-66
2022/11/17 09:01:50;;;;;;;;;;;;;;;16.15;63.53;95398.69;4232572;28;5777;-66
2022/11/17 09:03:53;;;;;;;;;;;;;;;16.15;63.53;95388.81;4240359;27;5645;-66
2022/11/17 09:05:58;;;;;;;;;;;;;;;16.15;63.44;95396.00;4240553;27;5826;-66
2022/11/17 09:08:01;;;;;;;;;;;;;;;16.15;63.43;95396.81;4236024;27;5677;-66
2022/11/17 09:10:24;;;;;;;;;;;;;;;16.15;63.50;95383.47;4240363;27;5633;-65
2022/11/17 09:12:27;;;;;;;;;;;;;;;16.16;63.33;95376.28;4251514;27;5629;-65
2022/11/17 09:14:32;;;;;;;;;;;;;;;16.17;63.32;95377.88;4238986;27;5741;-65
2022/11/17 09:16:35;;;;;;;;;;;;;;;16.20;63.15;95396.84;4235368;27;5662;-65
2022/11/17 09:18:40;;;;;;;;;;;;;;;16.22;63.04;95401.91;4237796;27;5716;-65
2022/11/17 09:20:43;;;;;;;;;;;;;;;16.22;63.13;95400.03;4230251;27;5757;-65
2022/11/17 09:22:47;;;;;;;;;;;;;;;16.18;63.04;95388.28;4231834;27;6571;-65
2022/11/17 09:24:50;;;;;;;;;;;;;;;16.17;63.07;95397.34;4243085;27;5655;-65
2022/11/17 09:26:56;;;;;;;;;;;;;;;16.18;63.00;95403.47;4226675;28;5647;-65
2022/11/17 09:29:00;;;;;;;;;;;;;;;16.17;62.99;95399.22;4230752;27;5680;-65
2022/11/17 09:31:08;;;;;;;;;;;;;;;16.15;63.02;95406.69;4217617;28;5876;-66
2022/11/17 09:33:11;;;;;;;;;;;;;;;16.17;62.75;95408.00;4233782;27;5709;-65
2022/11/17 09:35:15;;;;;;;;;;;;;;;16.16;62.92;95417.06;4241518;27;5746;-65
2022/11/17 09:37:19;;;;;;;;;;;;;;;16.16;62.68;95416.28;4242357;27;5633;-65
2022/11/17 09:39:22;;;;;;;;;;;;;;;16.18;62.66;95420.28;4236377;27;5868;-65
2022/11/17 09:41:33;;;;;;;;;;;;;;;16.18;62.56;95414.16;4246220;27;5931;-65
2022/11/17 09:43:38;;;;;;;;;;;;;;;16.18;62.40;95404.28;4227098;27;5781;-65
2022/11/17 09:45:46;;;;;;;;;;;;;;;16.19;62.53;95405.88;4232550;28;5825;-65
2022/11/17 09:47:56;;;;;;;;;;;;;;;16.20;62.31;95412.84;4231629;27;5745;-65
2022/11/17 09:50:26;;;;;;;;;;;;;;;16.21;62.28;95409.09;4226840;27;6602;-65
2022/11/17 09:52:34;;;;;;;;;;;;;;;16.25;61.94;95406.72;4240944;27;5662;-65
2022/11/17 09:54:43;;;;;;;;;;;;;;;16.28;61.97;95414.19;4236722;27;5656;-65
2022/11/17 09:56:47;;;;;;;;;;;;;;;16.31;61.96;95403.00;4237624;27;5724;-65
2022/11/17 09:58:55;;;;;;;;;;;;;;;16.34;61.77;95393.69;4237601;27;5628;-66
2022/11/17 10:00:59;;;;;;;;;;;;;;;16.36;61.68;95384.34;4241299;27;5693;-65
2022/11/17 10:03:02;;;;;;;;;;;;;;;16.39;61.75;95383.00;4250313;27;5757;-65
2022/11/17 10:05:06;;;;;;;;;;;;;;;16.41;61.61;95380.88;4226205;28;5751;-65
2022/11/17 10:07:13;;;;;;;;;;;;;;;16.43;61.58;95381.44;4232507;28;5754;-65
2022/11/17 10:09:22;;;;;;;;;;;;;;;16.44;61.57;95386.50;4234540;27;5655;-66
2022/11/17 10:11:32;;;;;;;;;;;;;;;16.45;61.59;95382.75;4244427;27;5629;-66
2022/11/17 10:13:36;;;;;;;;;;;;;;;16.46;61.48;95383.56;4242832;27;5796;-65
2022/11/17 10:15:45;;;;;;;;;;;;;;;16.45;61.52;95365.97;4237024;27;5698;-66
2022/11/17 10:17:50;;;;;;;;;;;;;;;16.51;61.49;95370.22;4248532;27;5724;-65
2022/11/17 10:20:00;;;;;;;;;;;;;;;16.52;61.31;95361.94;4241825;27;5645;-66
2022/11/17 10:22:32;;;;;;;;;;;;;;;16.52;61.40;95363.81;4250597;27;5617;-66
2022/11/17 10:24:37;;;;;;;;;;;;;;;16.52;61.01;95359.28;4238423;27;5628;-66
2022/11/17 10:26:48;;;;;;;;;;;;;;;16.53;60.77;95358.22;4242591;27;5716;-66
2022/11/17 10:29:06;;;;;;;;;;;;;;;16.55;60.41;95349.97;4242227;27;5644;-66
2022/11/17 10:31:13;;;;;;;;;;;;;;;16.59;60.27;95348.38;4226586;27;6431;-66
2022/11/17 10:33:17;;;;;;;;;;;;;;;16.60;60.21;95349.97;4244538;27;5633;-66
2022/11/17 10:35:23;;;;;;;;;;;;;;;16.60;59.90;95348.09;4240402;27;5741;-67
2022/11/17 10:37:30;;;;;;;;;;;;;;;16.63;59.56;95344.09;4248721;27;5633;-67
2022/11/17 10:39:36;;;;;;;;;;;;;;;16.67;59.65;95345.19;4251399;27;5849;-67
2022/11/17 10:41:42;;;;;;;;;;;;;;;16.69;59.55;95334.25;4245706;27;5629;-67
2022/11/17 10:43:56;;;;;;;;;;;;;;;16.72;59.48;95333.72;4239176;27;7312;-66
2022/11/17 10:46:03;;;;;;;;;;;;;;;16.74;59.32;95336.91;4245491;27;5211;-67
2022/11/17 10:48:20;;;;;;;;;;;;;;;16.73;58.86;95322.78;4229057;27;5662;-66
2022/11/17 10:50:26;;;;;;;;;;;;;;;16.76;59.01;95324.94;4241951;27;6982;-66
2022/11/17 10:52:30;;;;;;;;;;;;;;;16.79;58.66;95319.06;4239905;27;5663;-66
2022/11/17 10:54:33;;;;;;;;;;;;;;;16.79;58.77;95319.06;4236657;27;6029;-66
2022/11/17 10:56:41;;;;;;;;;;;;;;;16.83;58.66;95321.97;4234223;27;6924;-66
2022/11/17 10:59:01;;;;;;;;;;;;;;;16.82;58.55;95337.19;4233774;27;5796;-67
2022/11/17 11:01:04;;;;;;;;;;;;;;;16.77;58.34;95326.53;4236899;27;5621;-66
2022/11/17 11:03:17;;;;;;;;;;;;;;;16.74;58.32;95318.25;4232224;27;5704;-66
2022/11/17 11:05:20;;;;;;;;;;;;;;;16.73;58.27;95324.66;4242670;27;5647;-66
2022/11/17 11:07:23;;;;;;;;;;;;;;;16.73;58.31;95335.31;4247710;27;5775;-66
2022/11/17 11:09:29;;;;;;;;;;;;;;;16.72;58.13;95328.38;4241138;27;6356;-67
2022/11/17 11:11:41;;;;;;;;;;;;;;;16.68;58.05;95322.78;4248739;27;5637;-66
2022/11/17 11:13:52;;;;;;;;;;;;;;;16.66;58.07;95324.91;4235698;27;5680;-66
2022/11/17 11:15:55;;;;;;;;;;;;;;;16.62;57.88;95326.47;4243812;27;5625;-66
2022/11/17 11:17:58;;;;;;;;;;;;;;;16.58;58.07;95339.56;4252479;27;5808;-66
2022/11/17 11:20:01;;;;;;;;;;;;;;;16.58;58.01;95347.56;4244645;27;5657;-66
2022/11/17 11:22:27;;;;;;;;;;;;;;;16.54;58.07;95340.38;4252911;27;5633;-66
2022/11/17 11:24:38;;;;;;;;;;;;;;;16.51;57.96;95327.53;4236331;28;5837;-67
2022/11/17 11:26:51;;;;;;;;;;;;;;;16.49;57.89;95322.47;4236276;27;5185;-66
2022/11/17 11:29:04;;;;;;;;;;;;;;;16.50;58.04;95316.06;4250925;27;5630;-66
2022/11/17 11:31:19;;;;;;;;;;;;;;;16.52;58.04;95305.13;4244716;27;5749;-66
2022/11/17 11:33:32;;;;;;;;;;;;;;;16.53;57.98;95299.53;4241395;27;6072;-67
2022/11/17 11:35:51;;;;;;;;;;;;;;;16.54;57.90;95295.03;4233581;27;5663;-67
2022/11/17 11:38:03;;;;;;;;;;;;;;;16.57;58.01;95292.63;4234482;27;5646;-67
2022/11/17 11:40:15;;;;;;;;;;;;;;;16.58;57.69;95282.75;4238575;27;6279;-66
2022/11/17 11:42:36;;;;;;;;;;;;;;;16.56;57.70;95269.66;4243373;27;5112;-66
2022/11/17 11:45:07;;;;;;;;;;;;;;;16.55;57.81;95264.59;4240681;27;5712;-66
2022/11/17 11:47:23;;;;;;;;;;;;;;;16.52;57.83;95265.13;4236467;27;5681;-66
2022/11/17 11:49:34;;;;;;;;;;;;;;;16.51;57.74;95263.53;4234716;27;5655;-66
2022/11/17 11:51:38;;;;;;;;;;;;;;;16.53;57.74;95256.06;4239949;27;5888;-66
2022/11/17 11:53:48;;;;;;;;;;;;;;;16.53;57.65;95261.38;4243907;27;5645;-66
2022/11/17 11:56:01;;;;;;;;;;;;;;;16.53;57.52;95256.06;4236615;27;5635;-67
2022/11/17 11:58:13;;;;;;;;;;;;;;;16.54;57.46;95255.00;4226986;28;5666;-66
2022/11/17 12:00:18;;;;;;;;;;;;;;;16.54;57.54;95263.81;4243901;27;6318;-66
2022/11/17 12:02:31;;;;;;;;;;;;;;;16.54;57.53;95263.81;4237669;27;5759;-66
2022/11/17 12:04:40;;;;;;;;;;;;;;;16.55;57.44;95268.06;4243874;27;5720;-66
2022/11/17 12:06:52;;;;;;;;;;;;;;;16.56;57.22;95268.88;4246651;27;5777;-67
2022/11/17 12:09:06;;;;;;;;;;;;;;;16.56;57.19;95266.22;4234064;28;5086;-67
2022/11/17 12:13:31;;;;;;;;;;;;;;;16.61;57.44;95268.84;4243686;27;5647;-66
2022/11/17 12:15:36;;;;;;;;;;;;;;;16.62;57.42;95270.47;4235101;27;5836;-67
2022/11/17 12:17:57;;;;;;;;;;;;;;;16.62;57.33;95261.66;4234769;27;5710;-67
2022/11/17 12:20:01;;;;;;;;;;;;;;;16.66;57.21;95276.88;4251376;27;5919;-66
2022/11/17 12:22:20;;;;;;;;;;;;;;;16.68;57.12;95268.63;4243327;27;5763;-68
2022/11/17 12:24:33;;;;;;;;;;;;;;;16.67;57.23;95270.47;4249279;27;5637;-67
2022/11/17 12:26:37;;;;;;;;;;;;;;;16.66;57.14;95281.41;4233583;27;5717;-68
2022/11/17 12:28:41;;;;;;;;;;;;;;;16.65;57.17;95290.47;4245410;27;5808;-67
2022/11/17 12:30:55;;;;;;;;;;;;;;;16.62;57.13;95296.34;4237440;27;5243;-67
2022/11/17 12:33:00;;;;;;;;;;;;;;;16.62;57.14;95317.69;4242542;27;5626;-67
2022/11/17 12:35:24;;;;;;;;;;;;;;;16.59;57.12;95330.50;4242942;27;5846;-67
2022/11/17 12:37:27;;;;;;;;;;;;;;;16.58;57.07;95334.22;4234596;28;5662;-67
2022/11/17 12:39:55;;;;;;;;;;;;;;;16.58;57.20;95309.41;4238478;27;5885;-67
2022/11/17 12:42:06;;;;;;;;;;;;;;;16.59;57.15;95303.00;4240903;27;5786;-67
2022/11/17 12:44:43;;;;;;;;;;;;;;;16.57;57.12;95289.94;4229110;27;5670;-67
2022/11/17 12:46:49;;;;;;;;;;;;;;;16.57;57.26;95286.47;4229974;27;5671;-67
2022/11/17 12:48:58;;;;;;;;;;;;;;;16.56;57.28;95267.00;4229940;27;5751;-67
2022/11/17 12:51:06;;;;;;;;;;;;;;;16.55;57.33;95280.63;4242347;27;5662;-67
2022/11/17 12:53:29;;;;;;;;;;;;;;;16.56;57.16;95295.56;4233669;27;5902;-67
2022/11/17 12:55:52;;;;;;;;;;;;;;;16.58;57.13;95296.09;4231994;28;7244;-67
2022/11/17 12:58:09;;;;;;;;;;;;;;;16.60;57.05;95315.28;4230813;27;7683;-67
2022/11/17 13:00:19;;;;;;;;;;;;;;;16.60;57.14;95309.94;4241084;27;6732;-67
2022/11/17 13:02:55;;;;;;;;;;;;;;;16.58;57.19;95299.53;4240757;27;7687;-67
2022/11/17 13:05:03;;;;;;;;;;;;;;;16.59;57.12;95292.34;4224888;27;5646;-67
2022/11/17 13:07:08;;;;;;;;;;;;;;;16.60;57.05;95297.41;4228964;27;5670;-67
2022/11/17 13:09:12;;;;;;;;;;;;;;;16.65;57.08;95293.97;4243204;27;5651;-68
2022/11/17 13:11:16;;;;;;;;;;;;;;;16.70;57.09;95290.50;4234428;27;5115;-67
2022/11/17 13:13:22;;;;;;;;;;;;;;;16.74;56.96;95286.22;4224545;27;5654;-68
2022/11/17 13:15:25;;;;;;;;;;;;;;;16.77;56.86;95286.50;4237513;27;5937;-67
2022/11/17 13:17:30;;;;;;;;;;;;;;;16.77;56.94;95273.16;4239348;27;5659;-68
2022/11/17 13:19:35;;;;;;;;;;;;;;;16.77;56.95;95278.50;4237847;27;5719;-67
2022/11/17 13:21:38;;;;;;;;;;;;;;;16.78;56.94;95269.41;4228309;28;5667;-67
2022/11/17 13:23:44;;;;;;;;;;;;;;;16.81;56.97;95287.56;4233609;27;5658;-67
2022/11/17 13:25:47;;;;;;;;;;;;;;;16.83;56.82;95282.75;4244839;27;5754;-68
2022/11/17 13:27:50;;;;;;;;;;;;;;;16.84;56.99;95273.66;4238988;27;5614;-67
2022/11/17 13:30:23;;;;;;;;;;;;;;;16.86;57.04;95279.53;4226914;27;5737;-67
2022/11/17 13:32:27;;;;;;;;;;;;;;;16.90;57.17;95279.00;4222934;28;5738;-67
2022/11/17 13:34:30;;;;;;;;;;;;;;;16.88;57.29;95276.63;4246085;27;5630;-67
2022/11/17 13:36:34;;;;;;;;;;;;;;;16.90;57.41;95276.34;4242044;27;5884;-67
2022/11/17 13:38:36;;;;;;;;;;;;;;;16.90;57.44;95266.47;4237909;27;5738;-67
2022/11/17 13:40:42;;;;;;;;;;;;;;;16.91;57.66;95267.25;4234578;28;5882;-68
2022/11/17 13:42:45;;;;;;;;;;;;;;;16.92;57.57;95269.66;4248562;27;5700;-67
2022/11/17 13:44:48;;;;;;;;;;;;;;;16.94;57.60;95264.06;4236278;27;5643;-67
2022/11/17 13:46:53;;;;;;;;;;;;;;;16.97;57.60;95264.31;4249629;27;5629;-67
2022/11/17 13:48:58;;;;;;;;;;;;;;;16.99;57.77;95264.03;4242126;27;5704;-67
2022/11/17 13:51:22;;;;;;;;;;;;;;;17.02;57.79;95264.31;4242684;27;5663;-67
2022/11/17 13:53:26;;;;;;;;;;;;;;;17.08;57.78;95251.72;4242548;27;5643;-67
2022/11/17 13:55:30;;;;;;;;;;;;;;;17.13;57.73;95257.06;4237974;27;6619;-67
2022/11/17 13:57:32;;;;;;;;;;;;;;;17.16;57.83;95259.19;4233550;27;6413;-67
2022/11/17 13:59:38;;;;;;;;;;;;;;;17.16;57.87;95243.97;4234792;27;5833;-67
2022/11/17 14:01:42;;;;;;;;;;;;;;;17.16;57.95;95241.28;4234042;28;5662;-67
2022/11/17 14:03:47;;;;;;;;;;;;;;;17.17;58.00;95237.56;4226937;28;5638;-68
2022/11/17 14:05:55;;;;;;;;;;;;;;;17.18;57.95;95238.34;4229972;27;5651;-67
2022/11/17 14:08:10;;;;;;;;;;;;;;;17.17;58.09;95231.41;4225355;27;5733;-67
2022/11/17 14:10:23;;;;;;;;;;;;;;;17.18;58.18;95225.00;4234228;28;5814;-67
2022/11/17 14:12:26;;;;;;;;;;;;;;;17.17;58.07;95229.53;4226778;27;5630;-67
2022/11/17 14:14:34;;;;;;;;;;;;;;;17.18;57.87;95222.31;4238945;27;5752;-67
2022/11/17 14:16:39;;;;;;;;;;;;;;;17.17;57.88;95218.06;4230346;27;5850;-67
2022/11/17 14:18:42;;;;;;;;;;;;;;;17.16;57.71;95214.59;4239652;27;5749;-67
2022/11/17 14:20:46;;;;;;;;;;;;;;;17.19;57.34;95205.22;4240145;27;5633;-67
2022/11/17 14:23:03;;;;;;;;;;;;;;;17.20;57.12;95201.50;4254011;27;5648;-67
2022/11/17 14:25:07;;;;;;;;;;;;;;;17.21;57.12;95186.25;4251122;27;5714;-67
2022/11/17 14:27:14;;;;;;;;;;;;;;;17.23;56.98;95184.94;4234096;28;5639;-68
2022/11/17 14:29:18;;;;;;;;;;;;;;;17.25;56.66;95190.81;4232895;27;5676;-67
2022/11/17 14:31:21;;;;;;;;;;;;;;;17.26;56.41;95192.41;4234648;28;5654;-67
2022/11/17 14:33:24;;;;;;;;;;;;;;;17.28;56.26;95178.75;4227543;27;5664;-67
2022/11/17 14:35:28;;;;;;;;;;;;;;;17.30;56.13;95181.97;4240178;27;5650;-67
2022/11/17 14:37:32;;;;;;;;;;;;;;;17.29;55.99;95178.50;4241675;27;5659;-67
2022/11/17 14:39:37;;;;;;;;;;;;;;;17.30;55.88;95173.94;4236709;27;6350;-67
2022/11/17 14:41:40;;;;;;;;;;;;;;;17.29;55.84;95169.69;4240523;27;5637;-67
2022/11/17 14:43:43;;;;;;;;;;;;;;;17.29;55.70;95169.69;4237274;27;5734;-66
2022/11/17 14:45:47;;;;;;;;;;;;;;;17.27;55.81;95164.63;4235483;27;5658;-67
2022/11/17 14:47:50;;;;;;;;;;;;;;;17.27;55.75;95169.16;4235535;27;5690;-67
2022/11/17 14:49:52;;;;;;;;;;;;;;;17.27;55.61;95163.81;4245181;27;5884;-66
2022/11/17 14:51:57;;;;;;;;;;;;;;;17.25;55.63;95161.44;4225100;27;6364;-66
2022/11/17 14:54:02;;;;;;;;;;;;;;;17.25;55.61;95150.75;4232741;28;5659;-66
2022/11/17 14:56:12;;;;;;;;;;;;;;;17.27;55.66;95153.13;4236151;27;5601;-66
2022/11/17 14:58:15;;;;;;;;;;;;;;;17.28;55.54;95150.19;4234491;27;5948;-67
2022/11/17 15:00:19;;;;;;;;;;;;;;;17.26;55.65;95143.53;4232731;27;5647;-66
2022/11/17 15:02:22;;;;;;;;;;;;;;;17.26;55.76;95140.84;4237272;27;5893;-67
2022/11/17 15:04:25;;;;;;;;;;;;;;;17.25;55.46;95128.59;4236009;28;5646;-66
2022/11/17 15:06:48;;;;;;;;;;;;;;;17.24;55.23;95117.09;4251322;27;5665;-66
2022/11/17 15:08:55;;;;;;;;;;;;;;;17.23;55.18;95112.84;4237548;27;5646;-67
2022/11/17 15:11:00;;;;;;;;;;;;;;;17.22;55.02;95113.91;4232883;27;5758;-65
2022/11/17 15:13:03;;;;;;;;;;;;;;;17.22;54.76;95113.13;4222283;27;5659;-69
2022/11/17 15:15:06;;;;;;;;;;;;;;;17.22;54.82;95113.13;4231983;27;5654;-72
2022/11/17 15:17:09;;;;;;;;;;;;;;;17.21;54.86;95106.16;4231271;27;5671;-68
2022/11/17 15:19:16;;;;;;;;;;;;;;;17.21;54.62;95098.16;4245380;27;5632;-71
2022/11/17 15:21:19;;;;;;;;;;;;;;;17.19;54.60;95093.09;4243363;27;5902;-68
2022/11/17 15:23:22;;;;;;;;;;;;;;;17.18;54.47;95088.81;4250156;27;5881;-70
2022/11/17 15:25:25;;;;;;;;;;;;;;;17.18;54.30;95078.94;4237126;27;5793;-73
2022/11/17 15:27:30;;;;;;;;;;;;;;;17.18;54.23;95078.13;4247609;27;5613;-74
2022/11/17 15:29:33;;;;;;;;;;;;;;;17.18;54.07;95078.13;4238701;27;6340;-74
2022/11/17 15:31:36;;;;;;;;;;;;;;;17.17;53.91;95073.88;4231409;27;5634;-72
2022/11/17 15:33:40;;;;;;;;;;;;;;;17.16;53.98;95069.63;4224910;27;5750;-74
2022/11/17 15:35:45;;;;;;;;;;;;;;;17.16;53.87;95070.41;4226616;27;5810;-71
2022/11/17 15:37:48;;;;;;;;;;;;;;;17.16;53.82;95069.63;4236508;27;6478;-72
2022/11/17 15:39:51;;;;;;;;;;;;;;;17.14;53.79;95074.44;4230231;27;5775;-71
2022/11/17 15:41:54;;;;;;;;;;;;;;;17.12;53.72;95072.03;4235832;27;5660;-68
2022/11/17 15:43:58;;;;;;;;;;;;;;;17.11;53.89;95075.00;4231917;27;5661;-87
2022/11/17 15:46:02;;;;;;;;;;;;;;;17.09;53.86;95066.44;4230954;27;5840;-71
2022/11/17 15:48:06;;;;;;;;;;;;;;;17.04;54.15;95066.47;4228713;27;5717;-73
2022/11/17 15:50:10;;;;;;;;;;;;;;;17.03;54.19;95051.53;4232708;27;5647;-82
2022/11/17 15:52:13;;;;;;;;;;;;;;;17.01;54.14;95051.03;4233655;27;5635;-79
2022/11/17 15:54:16;;;;;;;;;;;;;;;17.00;53.89;95052.91;4233239;27;5832;-66
2022/11/17 15:56:24;;;;;;;;;;;;;;;16.99;53.72;95045.97;4228306;27;5881;-85
2022/11/17 15:58:27;;;;;;;;;;;;;;;17.01;53.89;95053.69;4225397;27;5725;-84
2022/11/17 16:00:32;;;;;;;;;;;;;;;17.01;53.78;95056.34;4230060;27;5911;-84
2022/11/17 16:02:35;;;;;;;;;;;;;;;16.99;53.70;95050.47;4225911;27;5838;-84
2022/11/17 16:04:38;;;;;;;;;;;;;;;16.99;53.20;95056.63;4224748;27;6306;-84
2022/11/17 16:06:43;;;;;;;;;;;;;;;16.97;53.39;95055.28;4238926;27;5672;-85
2022/11/17 16:08:46;;;;;;;;;;;;;;;16.95;53.08;95050.22;4235497;27;5954;-84
2022/11/17 16:10:49;;;;;;;;;;;;;;;16.94;52.96;95048.63;4237369;27;6580;-84
2022/11/17 16:12:51;;;;;;;;;;;;;;;16.94;52.92;95045.19;4235076;27;5799;-84
2022/11/17 16:14:55;;;;;;;;;;;;;;;16.92;52.79;95048.13;4231671;27;5688;-84
2022/11/17 16:16:59;;;;;;;;;;;;;;;16.93;52.77;95046.25;4238531;27;5768;-84
2022/11/17 16:19:04;;;;;;;;;;;;;;;16.93;52.57;95054.25;4236856;27;5868;-84
2022/11/17 16:21:10;;;;;;;;;;;;;;;16.92;52.63;95056.13;4226830;28;6355;-83
2022/11/17 16:23:14;;;;;;;;;;;;;;;16.91;52.61;95051.88;4234783;27;5745;-83
2022/11/17 16:25:17;;;;;;;;;;;;;;;16.91;52.45;95043.88;4235604;27;5714;-82
2022/11/17 16:27:19;;;;;;;;;;;;;;;16.92;52.52;95050.78;4229707;27;5878;-82
2022/11/17 16:29:23;;;;;;;;;;;;;;;16.94;52.51;95048.63;4236351;27;5866;-82
2022/11/17 16:31:28;;;;;;;;;;;;;;;16.95;52.34;95044.09;4224365;27;5857;-82
2022/11/17 16:33:33;;;;;;;;;;;;;;;16.95;52.29;95044.09;4229342;28;5772;-83
2022/11/17 16:35:35;;;;;;;;;;;;;;;16.97;52.11;95055.28;4227494;27;5651;-83
2022/11/17 16:37:38;;;;;;;;;;;;;;;16.97;52.46;95050.75;4232706;27;5734;-83
2022/11/17 16:39:41;;;;;;;;;;;;;;;16.98;52.24;95048.88;4235257;27;5735;-83
2022/11/17 16:41:45;;;;;;;;;;;;;;;16.99;52.28;95047.81;4228314;27;5643;-83
2022/11/17 16:43:48;;;;;;;;;;;;;;;16.99;52.27;95037.94;4230663;27;5889;-85
2022/11/17 16:45:51;;;;;;;;;;;;;;;17.00;52.22;95052.91;4230267;27;6333;-83
2022/11/17 16:47:54;;;;;;;;;;;;;;;17.00;52.35;95046.75;4229692;27;5676;-83
2022/11/17 16:49:58;;;;;;;;;;;;;;;17.02;52.37;95049.94;4228681;27;5759;-84
2022/11/17 16:52:01;;;;;;;;;;;;;;;17.02;52.36;95058.75;4229346;27;5766;-84
2022/11/17 16:54:06;;;;;;;;;;;;;;;17.04;52.16;95071.81;4230889;27;5747;-82
2022/11/17 16:56:10;;;;;;;;;;;;;;;17.03;52.16;95063.00;4229238;27;5654;-82
2022/11/17 16:58:13;;;;;;;;;;;;;;;17.03;52.14;95068.34;4226380;27;5726;-81
2022/11/17 17:00:17;;;;;;;;;;;;;;;17.03;52.09;95072.91;4222145;27;5708;-83
2022/11/17 17:02:20;;;;;;;;;;;;;;;17.04;51.81;95066.47;4231087;27;5682;-82
2022/11/17 17:04:23;;;;;;;;;;;;;;;17.06;51.86;95072.34;4229248;27;5911;-85
2022/11/17 17:06:28;;;;;;;;;;;;;;;17.07;51.73;95065.91;4237577;27;5642;-80
2022/11/17 17:08:30;;;;;;;;;;;;;;;17.07;51.65;95081.94;4235722;27;5652;-79